Time,TemperatureF,DewpointF,PressureIn,WindDirection,WindDirectionDegrees,WindSpeedMPH,WindSpeedGustMPH,Humidity,HourlyPrecipIn,Conditions,Clouds,dailyrainin,SolarRadiationWatts/m^2,SoftwareType,DateUTC
2013-11-19 00:01:00,52.1,40.3,30.19,North,360,1.0,2.0,64,0.00,,---,0.00,0.00,VWS V14.00,2013-11-19 06:01:00,
2013-11-19 00:06:00,51.9,40.1,30.19,North,360,1.0,2.0,64,0.00,,---,0.00,0.00,VWS V14.00,2013-11-19 06:06:00,
2013-11-19 00:11:00,51.7,39.9,30.19,North,360,1.0,2.0,64,0.00,,---,0.00,0.00,VWS V14.00,2013-11-19 06:11:00,
2013-11-19 00:16:00,51.5,40.1,30.19,North,360,0.0,1.0,65,0.00,,---,0.00,0.00,VWS V14.00,2013-11-19 06:16:00,
2013-11-19 00:21:00,51.4,40.4,30.19,North,360,1.0,1.0,66,0.00,,---,0.00,0.00,VWS V14.00,2013-11-19 06:21:00,
2013-11-19 00:26:00,51.2,40.6,30.19,North,360,2.0,2.0,67,0.00,,---,0.00,0.00,VWS V14.00,2013-11-19 06:26:00,
2013-11-19 00:31:00,50.9,40.3,30.19,North,360,2.0,2.0,67,0.00,,---,0.00,0.00,VWS V14.00,2013-11-19 06:31:00,
2013-11-19 00:36:00,50.6,40.4,30.19,North,360,1.0,2.0,68,0.00,,---,0.00,0.00,VWS V14.00,2013-11-19 06:36:00,
2013-11-19 00:41:00,50.3,40.5,30.19,NNW,347,2.0,4.0,69,0.00,,---,0.00,0.00,VWS V14.00,2013-11-19 06:41:00,
2013-11-19 00:46:00,50.3,40.5,30.19,NNW,340,3.0,3.0,69,0.00,,---,0.00,0.00,VWS V14.00,2013-11-19 06:46:00,
2013-11-19 00:51:00,50.2,40.8,30.19,NNW,341,2.0,3.0,70,0.00,,---,0.00,0.00,VWS V14.00,2013-11-19 06:51:00,
2013-11-19 00:56:00,50.2,40.8,30.18,NNW,342,1.0,2.0,70,0.00,,---,0.00,0.00,VWS V14.00,2013-11-19 06:56:00,
2013-11-19 01:01:00,50.1,41.1,30.18,NNW,342,3.0,3.0,71,0.00,,---,0.00,0.00,VWS V14.00,2013-11-19 07:01:00,
2013-11-19 01:06:00,50.0,41.3,30.18,NNW,342,2.0,2.0,72,0.00,,---,0.00,0.00,VWS V14.00,2013-11-19 07:06:00,
2013-11-19 01:11:00,50.0,41.3,30.18,NNW,343,1.0,2.0,72,0.00,,---,0.00,0.00,VWS V14.00,2013-11-19 07:11:00,
2013-11-19 01:16:00,50.0,41.3,30.18,NNW,343,1.0,2.0,72,0.00,,---,0.00,0.00,VWS V14.00,2013-11-19 07:16:00,
2013-11-19 01:21:00,50.1,41.4,30.18,NNW,343,1.0,1.0,72,0.00,,---,0.00,0.00,VWS V14.00,2013-11-19 07:21:00,
2013-11-19 01:26:00,50.1,41.1,30.18,NNW,343,0.0,1.0,71,0.00,,---,0.00,0.00,VWS V14.00,2013-11-19 07:26:00,
2013-11-19 01:31:00,50.1,41.1,30.18,NNW,343,2.0,2.0,71,0.00,,---,0.00,0.00,VWS V14.00,2013-11-19 07:31:00,
2013-11-19 01:36:00,50.2,41.2,30.18,North,355,2.0,2.0,71,0.00,,---,0.00,0.00,VWS V14.00,2013-11-19 07:36:00,
2013-11-19 01:41:00,50.3,41.3,30.18,North,355,1.0,2.0,71,0.00,,---,0.00,0.00,VWS V14.00,2013-11-19 07:41:00,
2013-11-19 01:46:00,50.3,41.3,30.18,North,355,1.0,2.0,71,0.00,,---,0.00,0.00,VWS V14.00,2013-11-19 07:46:00,
2013-11-19 01:51:00,50.3,41.3,30.19,North,355,0.0,2.0,71,0.00,,---,0.00,0.00,VWS V14.00,2013-11-19 07:51:00,
2013-11-19 01:56:00,50.2,41.2,30.18,NNE,13,3.0,3.0,71,0.00,,---,0.00,0.00,VWS V14.00,2013-11-19 07:56:00,
2013-11-19 02:01:00,50.1,41.8,30.18,NNE,32,2.0,2.0,73,0.00,,---,0.00,0.00,VWS V14.00,2013-11-19 08:01:00,
2013-11-19 02:06:00,50.0,41.3,30.18,NE,36,2.0,3.0,72,0.00,,---,0.00,0.00,VWS V14.00,2013-11-19 08:06:00,
2013-11-19 02:11:00,50.1,41.4,30.18,NNE,25,1.0,5.0,72,0.00,,---,0.00,0.00,VWS V14.00,2013-11-19 08:11:00,
2013-11-19 02:16:00,50.3,41.3,30.18,NNE,25,3.0,4.0,71,0.00,,---,0.00,0.00,VWS V14.00,2013-11-19 08:16:00,
2013-11-19 02:21:00,50.5,41.1,30.18,NE,41,3.0,7.0,70,0.00,,---,0.00,0.00,VWS V14.00,2013-11-19 08:21:00,
2013-11-19 02:26:00,50.9,41.1,30.18,NE,54,5.0,5.0,69,0.00,,---,0.00,0.00,VWS V14.00,2013-11-19 08:26:00,
2013-11-19 02:31:00,51.2,40.6,30.18,NE,50,2.0,4.0,67,0.00,,---,0.00,0.00,VWS V14.00,2013-11-19 08:31:00,
2013-11-19 02:36:00,51.3,40.7,30.18,NE,51,4.0,4.0,67,0.00,,---,0.00,0.00,VWS V14.00,2013-11-19 08:36:00,
2013-11-19 02:41:00,51.4,40.8,30.18,ENE,63,4.0,5.0,67,0.00,,---,0.00,0.00,VWS V14.00,2013-11-19 08:41:00,
2013-11-19 02:46:00,51.5,40.9,30.18,NE,54,4.0,5.0,67,0.00,,---,0.00,0.00,VWS V14.00,2013-11-19 08:46:00,
2013-11-19 02:51:00,51.5,40.5,30.18,NNE,24,3.0,3.0,66,0.00,,---,0.00,0.00,VWS V14.00,2013-11-19 08:51:00,
2013-11-19 02:56:00,51.5,40.5,30.18,NE,56,2.0,2.0,66,0.00,,---,0.00,0.00,VWS V14.00,2013-11-19 08:56:00,
2013-11-19 03:01:00,51.6,40.6,30.18,NE,40,3.0,4.0,66,0.00,,---,0.00,0.00,VWS V14.00,2013-11-19 09:01:00,
2013-11-19 03:06:00,51.7,40.7,30.18,NNE,19,6.0,6.0,66,0.00,,---,0.00,0.00,VWS V14.00,2013-11-19 09:06:00,
2013-11-19 03:11:00,51.8,40.4,30.18,NE,35,4.0,6.0,65,0.00,,---,0.00,0.00,VWS V14.00,2013-11-19 09:11:00,
2013-11-19 03:16:00,51.9,40.5,30.18,NNE,24,4.0,5.0,65,0.00,,---,0.00,0.00,VWS V14.00,2013-11-19 09:16:00,
2013-11-19 03:21:00,51.8,40.4,30.18,NE,51,4.0,5.0,65,0.00,,---,0.00,0.00,VWS V14.00,2013-11-19 09:21:00,
2013-11-19 03:26:00,51.8,40.4,30.18,NE,43,3.0,7.0,65,0.00,,---,0.00,0.00,VWS V14.00,2013-11-19 09:26:00,
2013-11-19 03:31:00,51.7,40.3,30.18,NNE,17,3.0,5.0,65,0.00,,---,0.00,0.00,VWS V14.00,2013-11-19 09:31:00,
2013-11-19 03:36:00,51.7,40.3,30.18,NNE,29,3.0,4.0,65,0.00,,---,0.00,0.00,VWS V14.00,2013-11-19 09:36:00,
2013-11-19 03:41:00,51.7,39.9,30.18,NE,38,4.0,8.0,64,0.00,,---,0.00,0.00,VWS V14.00,2013-11-19 09:41:00,
2013-11-19 03:46:00,51.7,39.5,30.18,NE,45,6.0,8.0,63,0.00,,---,0.00,0.00,VWS V14.00,2013-11-19 09:46:00,
2013-11-19 03:51:00,51.8,39.2,30.18,NE,38,6.0,7.0,62,0.00,,---,0.00,0.00,VWS V14.00,2013-11-19 09:51:00,
2013-11-19 03:56:00,51.7,39.1,30.18,ENE,71,9.0,9.0,62,0.00,,---,0.00,0.00,VWS V14.00,2013-11-19 09:56:00,
2013-11-19 04:01:00,51.7,38.7,30.18,NE,49,5.0,5.0,61,0.00,,---,0.00,0.00,VWS V14.00,2013-11-19 10:01:00,
2013-11-19 04:06:00,51.8,37.9,30.18,NE,48,5.0,8.0,59,0.00,,---,0.00,0.00,VWS V14.00,2013-11-19 10:06:00,
2013-11-19 04:11:00,51.9,38.0,30.18,ENE,57,5.0,7.0,59,0.00,,---,0.00,0.00,VWS V14.00,2013-11-19 10:11:00,
2013-11-19 04:16:00,51.8,37.5,30.18,NE,53,8.0,11.0,58,0.00,,---,0.00,0.00,VWS V14.00,2013-11-19 10:16:00,
2013-11-19 04:21:00,51.9,37.6,30.17,ENE,76,10.0,10.0,58,0.00,,---,0.00,0.00,VWS V14.00,2013-11-19 10:21:00,
2013-11-19 04:26:00,51.9,37.2,30.17,NE,48,8.0,12.0,57,0.00,,---,0.00,0.00,VWS V14.00,2013-11-19 10:26:00,
2013-11-19 04:31:00,51.9,37.2,30.17,NE,51,5.0,8.0,57,0.00,,---,0.00,0.00,VWS V14.00,2013-11-19 10:31:00,
2013-11-19 04:36:00,51.8,37.1,30.17,ENE,74,7.0,8.0,57,0.00,,---,0.00,0.00,VWS V14.00,2013-11-19 10:36:00,
2013-11-19 04:41:00,51.6,36.9,30.17,NE,53,5.0,6.0,57,0.00,,---,0.00,0.00,VWS V14.00,2013-11-19 10:41:00,
2013-11-19 04:46:00,51.4,36.7,30.18,NE,47,5.0,7.0,57,0.00,,---,0.00,0.00,VWS V14.00,2013-11-19 10:46:00,
2013-11-19 04:51:00,51.1,36.4,30.18,NE,53,7.0,8.0,57,0.00,,---,0.00,0.00,VWS V14.00,2013-11-19 10:51:00,
2013-11-19 04:56:00,50.9,36.2,30.18,ENE,71,7.0,7.0,57,0.00,,---,0.00,0.00,VWS V14.00,2013-11-19 10:56:00,
2013-11-19 05:01:00,50.7,36.0,30.19,NNE,32,2.0,4.0,57,0.00,,---,0.00,0.00,VWS V14.00,2013-11-19 11:01:00,
2013-11-19 05:06:00,50.6,35.5,30.19,ENE,65,9.0,9.0,56,0.00,,---,0.00,0.00,VWS V14.00,2013-11-19 11:06:00,
2013-11-19 05:11:00,50.7,35.6,30.19,NE,53,3.0,5.0,56,0.00,,---,0.00,0.00,VWS V14.00,2013-11-19 11:11:00,
2013-11-19 05:16:00,50.6,35.5,30.20,ENE,63,3.0,4.0,56,0.00,,---,0.00,0.00,VWS V14.00,2013-11-19 11:16:00,
2013-11-19 05:21:00,50.7,35.1,30.19,NE,51,7.0,9.0,55,0.00,,---,0.00,0.00,VWS V14.00,2013-11-19 11:21:00,
2013-11-19 05:26:00,50.6,35.0,30.19,NE,56,5.0,5.0,55,0.00,,---,0.00,0.00,VWS V14.00,2013-11-19 11:26:00,
2013-11-19 05:31:00,50.3,35.2,30.19,ENE,59,4.0,7.0,56,0.00,,---,0.00,0.00,VWS V14.00,2013-11-19 11:31:00,
2013-11-19 05:36:00,50.1,35.5,30.19,NE,50,4.0,6.0,57,0.00,,---,0.00,0.00,VWS V14.00,2013-11-19 11:36:00,
2013-11-19 05:41:00,49.9,35.3,30.19,NE,53,5.0,9.0,57,0.00,,---,0.00,0.00,VWS V14.00,2013-11-19 11:41:00,
2013-11-19 05:46:00,49.8,35.2,30.19,NE,42,5.0,7.0,57,0.00,,---,0.00,0.00,VWS V14.00,2013-11-19 11:46:00,
2013-11-19 05:51:00,49.8,35.2,30.19,ENE,62,4.0,5.0,57,0.00,,---,0.00,0.00,VWS V14.00,2013-11-19 11:51:00,
2013-11-19 05:56:00,50.0,34.9,30.20,NE,49,5.0,6.0,56,0.00,,---,0.00,0.00,VWS V14.00,2013-11-19 11:56:00,
2013-11-19 06:01:00,50.0,34.9,30.20,NE,50,5.0,7.0,56,0.00,,---,0.00,0.00,VWS V14.00,2013-11-19 12:01:00,
2013-11-19 06:06:00,50.1,34.6,30.21,NE,48,5.0,7.0,55,0.00,,---,0.00,0.00,VWS V14.00,2013-11-19 12:06:00,
2013-11-19 06:11:00,50.1,34.6,30.22,NE,44,4.0,6.0,55,0.00,,---,0.00,0.00,VWS V14.00,2013-11-19 12:11:00,
2013-11-19 06:16:00,50.1,34.6,30.22,NE,44,4.0,5.0,55,0.00,,---,0.00,0.00,VWS V14.00,2013-11-19 12:16:00,
2013-11-19 06:20:00,50.1,34.6,30.21,ENE,58,5.0,5.0,55,0.00,,---,0.00,0.00,VWS V14.00,2013-11-19 12:20:00,
2013-11-19 06:25:00,50.1,34.6,30.21,ENE,59,4.0,6.0,55,0.00,,---,0.00,0.00,VWS V14.00,2013-11-19 12:25:00,
2013-11-19 06:30:00,50.1,34.6,30.21,ENE,61,5.0,7.0,55,0.00,,---,0.00,0.00,VWS V14.00,2013-11-19 12:30:00,
2013-11-19 06:35:00,50.0,34.5,30.21,NE,53,5.0,5.0,55,0.00,,---,0.00,5.00,VWS V14.00,2013-11-19 12:35:00,
2013-11-19 06:40:00,50.0,34.5,30.21,ENE,73,3.0,4.0,55,0.00,,---,0.00,0.00,VWS V14.00,2013-11-19 12:40:00,
2013-11-19 06:45:00,49.9,34.4,30.22,ENE,78,3.0,5.0,55,0.00,,---,0.00,7.00,VWS V14.00,2013-11-19 12:45:00,
2013-11-19 06:50:00,49.8,34.8,30.22,NNE,32,5.0,7.0,56,0.00,,---,0.00,11.00,VWS V14.00,2013-11-19 12:50:00,
2013-11-19 06:55:00,49.8,34.8,30.22,NE,49,7.0,7.0,56,0.00,,---,0.00,16.00,VWS V14.00,2013-11-19 12:55:00,
2013-11-19 07:00:00,49.8,34.8,30.22,NNE,31,7.0,10.0,56,0.00,,---,0.00,21.00,VWS V14.00,2013-11-19 13:00:00,
2013-11-19 07:05:00,49.8,34.8,30.22,NE,38,5.0,5.0,56,0.00,,---,0.00,32.00,VWS V14.00,2013-11-19 13:05:00,
2013-11-19 07:10:00,50.0,34.5,30.22,NE,55,8.0,8.0,55,0.00,,---,0.00,39.00,VWS V14.00,2013-11-19 13:10:00,
2013-11-19 07:15:00,50.2,34.7,30.22,ENE,66,7.0,8.0,55,0.00,,---,0.00,42.00,VWS V14.00,2013-11-19 13:15:00,
2013-11-19 07:20:00,50.1,34.1,30.22,ENE,60,13.0,13.0,54,0.00,,---,0.00,37.00,VWS V14.00,2013-11-19 13:20:00,
2013-11-19 07:25:00,50.0,34.0,30.23,NNE,31,6.0,6.0,54,0.00,,---,0.00,54.00,VWS V14.00,2013-11-19 13:25:00,
2013-11-19 07:30:00,50.1,34.6,30.24,ENE,61,5.0,6.0,55,0.00,,---,0.00,93.00,VWS V14.00,2013-11-19 13:30:00,
2013-11-19 07:35:00,50.3,34.3,30.24,ENE,66,9.0,9.0,54,0.00,,---,0.00,84.00,VWS V14.00,2013-11-19 13:35:00,
2013-11-19 07:40:00,50.5,34.0,30.24,NE,55,7.0,7.0,53,0.00,,---,0.00,79.00,VWS V14.00,2013-11-19 13:40:00,
2013-11-19 07:45:00,50.5,34.0,30.24,NE,47,7.0,7.0,53,0.00,,---,0.00,67.00,VWS V14.00,2013-11-19 13:45:00,
2013-11-19 07:50:00,50.5,34.5,30.24,ENE,59,5.0,5.0,54,0.00,,---,0.00,190.00,VWS V14.00,2013-11-19 13:50:00,
2013-11-19 07:55:00,51.0,34.0,30.24,ENE,69,9.0,10.0,52,0.00,,---,0.00,178.00,VWS V14.00,2013-11-19 13:55:00,
2013-11-19 08:00:00,51.5,34.0,30.25,ENE,60,4.0,6.0,51,0.00,,---,0.00,134.00,VWS V14.00,2013-11-19 14:00:00,
2013-11-19 08:05:00,51.6,33.6,30.25,NE,56,4.0,5.0,50,0.00,,---,0.00,137.00,VWS V14.00,2013-11-19 14:05:00,
2013-11-19 08:10:00,51.6,34.1,30.25,NE,41,9.0,12.0,51,0.00,,---,0.00,144.00,VWS V14.00,2013-11-19 14:10:00,
2013-11-19 08:15:00,51.5,34.0,30.25,NE,53,8.0,11.0,51,0.00,,---,0.00,113.00,VWS V14.00,2013-11-19 14:15:00,
2013-11-19 08:20:00,51.4,33.4,30.25,NE,46,6.0,8.0,50,0.00,,---,0.00,325.00,VWS V14.00,2013-11-19 14:20:00,
2013-11-19 08:26:00,51.8,34.3,30.25,ENE,69,5.0,10.0,51,0.00,,---,0.00,142.00,VWS V14.00,2013-11-19 14:26:00,
2013-11-19 08:28:00,51.9,33.4,30.25,ENE,64,10.0,14.0,49,0.00,,---,0.00,167.00,VWS V14.00,2013-11-19 14:28:00,
2013-11-19 08:33:00,51.8,33.3,30.25,NE,51,10.0,16.0,49,0.00,,---,0.00,141.00,VWS V14.00,2013-11-19 14:33:00,
2013-11-19 08:38:00,52.1,33.0,30.24,NE,53,9.0,17.0,48,0.00,,---,0.00,134.00,VWS V14.00,2013-11-19 14:38:00,
2013-11-19 08:43:00,52.0,32.9,30.25,NE,54,17.0,17.0,48,0.00,,---,0.00,105.00,VWS V14.00,2013-11-19 14:43:00,
2013-11-19 08:48:00,51.8,32.8,30.26,NNE,19,9.0,13.0,48,0.00,,---,0.00,116.00,VWS V14.00,2013-11-19 14:48:00,
2013-11-19 08:53:00,51.7,32.7,30.26,NE,46,10.0,11.0,48,0.00,,---,0.00,181.00,VWS V14.00,2013-11-19 14:53:00,
2013-11-19 08:58:00,52.1,33.0,30.25,NNE,17,7.0,12.0,48,0.00,,---,0.00,332.00,VWS V14.00,2013-11-19 14:58:00,
2013-11-19 09:03:00,53.4,33.2,30.25,NNE,32,11.0,15.0,46,0.00,,---,0.00,589.00,VWS V14.00,2013-11-19 15:03:00,
2013-11-19 09:08:00,54.7,33.8,30.25,ENE,57,11.0,13.0,45,0.00,,---,0.00,563.00,VWS V14.00,2013-11-19 15:08:00,
2013-11-19 09:13:00,55.3,32.6,30.26,ENE,57,11.0,15.0,42,0.00,,---,0.00,439.00,VWS V14.00,2013-11-19 15:13:00,
2013-11-19 09:18:00,55.2,32.5,30.25,ENE,75,14.0,15.0,42,0.00,,---,0.00,258.00,VWS V14.00,2013-11-19 15:18:00,
2013-11-19 09:23:00,54.4,31.8,30.26,ENE,62,7.0,9.0,42,0.00,,---,0.00,258.00,VWS V14.00,2013-11-19 15:23:00,
2013-11-19 09:28:00,54.2,31.6,30.26,ENE,57,5.0,10.0,42,0.00,,---,0.00,232.00,VWS V14.00,2013-11-19 15:28:00,
2013-11-19 09:33:00,54.2,31.6,30.26,NE,46,9.0,11.0,42,0.00,,---,0.00,540.00,VWS V14.00,2013-11-19 15:33:00,
2013-11-19 09:38:00,55.1,31.2,30.26,NNE,31,6.0,12.0,40,0.00,,---,0.00,520.00,VWS V14.00,2013-11-19 15:38:00,
2013-11-19 09:43:00,56.0,32.0,30.25,NE,34,10.0,10.0,40,0.00,,---,0.00,550.00,VWS V14.00,2013-11-19 15:43:00,
2013-11-19 09:48:00,56.8,30.8,30.26,NE,49,9.0,16.0,37,0.00,,---,0.00,564.00,VWS V14.00,2013-11-19 15:48:00,
2013-11-19 09:53:00,57.1,31.1,30.26,NNE,20,8.0,12.0,37,0.00,,---,0.00,555.00,VWS V14.00,2013-11-19 15:53:00,
2013-11-19 09:58:00,57.4,31.4,30.25,East,79,7.0,11.0,37,0.00,,---,0.00,601.00,VWS V14.00,2013-11-19 15:58:00,
2013-11-19 10:03:00,57.8,29.6,30.25,East,95,10.0,17.0,34,0.00,,---,0.00,694.00,VWS V14.00,2013-11-19 16:03:00,
2013-11-19 10:08:00,56.9,28.1,30.24,ENE,61,12.0,16.0,33,0.00,,---,0.00,295.00,VWS V14.00,2013-11-19 16:08:00,
2013-11-19 10:13:00,56.4,28.4,30.25,NE,34,7.0,9.0,34,0.00,,---,0.00,316.00,VWS V14.00,2013-11-19 16:13:00,
2013-11-19 10:18:00,56.3,28.3,30.25,NE,50,8.0,10.0,34,0.00,,---,0.00,336.00,VWS V14.00,2013-11-19 16:18:00,
2013-11-19 10:23:00,56.4,28.4,30.25,ENE,60,13.0,15.0,34,0.00,,---,0.00,325.00,VWS V14.00,2013-11-19 16:23:00,
2013-11-19 10:28:00,56.5,27.8,30.25,ENE,78,14.0,17.0,33,0.00,,---,0.00,330.00,VWS V14.00,2013-11-19 16:28:00,
2013-11-19 10:33:00,56.7,27.9,30.25,ENE,59,8.0,11.0,33,0.00,,---,0.00,366.00,VWS V14.00,2013-11-19 16:33:00,
2013-11-19 10:38:00,57.2,27.6,30.24,NE,47,6.0,11.0,32,0.00,,---,0.00,338.00,VWS V14.00,2013-11-19 16:38:00,
2013-11-19 10:43:00,57.3,28.5,30.24,NE,40,4.0,9.0,33,0.00,,---,0.00,357.00,VWS V14.00,2013-11-19 16:43:00,
2013-11-19 10:48:00,57.6,27.2,30.24,ENE,66,7.0,9.0,31,0.00,,---,0.00,350.00,VWS V14.00,2013-11-19 16:48:00,
2013-11-19 10:53:00,57.7,26.5,30.24,ENE,72,4.0,9.0,30,0.00,,---,0.00,364.00,VWS V14.00,2013-11-19 16:53:00,
2013-11-19 10:58:00,57.9,28.2,30.24,NE,47,10.0,11.0,32,0.00,,---,0.00,373.00,VWS V14.00,2013-11-19 16:58:00,
2013-11-19 11:03:00,57.9,27.5,30.23,NE,51,7.0,9.0,31,0.00,,---,0.00,338.00,VWS V14.00,2013-11-19 17:03:00,
2013-11-19 11:08:00,58.1,28.4,30.23,ENE,69,7.0,12.0,32,0.00,,---,0.00,302.00,VWS V14.00,2013-11-19 17:08:00,
2013-11-19 11:13:00,58.2,29.3,30.23,East,80,11.0,11.0,33,0.00,,---,0.00,417.00,VWS V14.00,2013-11-19 17:13:00,
2013-11-19 11:18:00,59.1,29.3,30.23,NNE,32,8.0,11.0,32,0.00,,---,0.00,664.00,VWS V14.00,2013-11-19 17:18:00,
2013-11-19 11:23:00,59.0,30.0,30.23,ENE,62,7.0,10.0,33,0.00,,---,0.00,682.00,VWS V14.00,2013-11-19 17:23:00,
2013-11-19 11:28:00,59.1,27.7,30.23,ENE,70,13.0,13.0,30,0.00,,---,0.00,635.00,VWS V14.00,2013-11-19 17:28:00,
2013-11-19 11:33:00,59.3,28.7,30.23,NE,41,7.0,10.0,31,0.00,,---,0.00,640.00,VWS V14.00,2013-11-19 17:33:00,
2013-11-19 11:35:00,59.6,29.7,30.23,NE,48,5.0,12.0,32,0.00,,---,0.00,628.00,VWS V14.00,2013-11-19 17:35:00,
2013-11-19 11:38:00,59.8,27.5,30.22,East,79,6.0,13.0,29,0.00,,---,0.00,626.00,VWS V14.00,2013-11-19 17:38:00,
2013-11-19 11:43:00,60.0,29.3,30.22,NE,38,9.0,11.0,31,0.00,,---,0.00,626.00,VWS V14.00,2013-11-19 17:43:00,
2013-11-19 11:48:00,59.9,29.2,30.22,NE,50,7.0,11.0,31,0.00,,---,0.00,628.00,VWS V14.00,2013-11-19 17:48:00,
2013-11-19 11:53:00,59.9,28.4,30.21,ENE,78,8.0,13.0,30,0.00,,---,0.00,626.00,VWS V14.00,2013-11-19 17:53:00,
2013-11-19 11:58:00,59.9,29.2,30.21,NE,47,10.0,10.0,31,0.00,,---,0.00,628.00,VWS V14.00,2013-11-19 17:58:00,
2013-11-19 12:03:00,59.9,29.2,30.21,NNE,18,12.0,13.0,31,0.00,,---,0.00,628.00,VWS V14.00,2013-11-19 18:03:00,
2013-11-19 12:08:00,60.1,29.4,30.21,NE,42,11.0,11.0,31,0.00,,---,0.00,628.00,VWS V14.00,2013-11-19 18:08:00,
2013-11-19 12:13:00,60.0,29.3,30.20,East,86,8.0,12.0,31,0.00,,---,0.00,624.00,VWS V14.00,2013-11-19 18:13:00,
2013-11-19 12:18:00,60.0,29.3,30.20,ENE,70,8.0,11.0,31,0.00,,---,0.00,624.00,VWS V14.00,2013-11-19 18:18:00,
2013-11-19 12:23:00,60.2,29.5,30.19,NNE,31,9.0,14.0,31,0.00,,---,0.00,622.00,VWS V14.00,2013-11-19 18:23:00,
2013-11-19 12:28:00,59.8,28.3,30.19,NE,44,10.0,13.0,30,0.00,,---,0.00,622.00,VWS V14.00,2013-11-19 18:28:00,
2013-11-19 12:33:00,60.0,28.5,30.18,East,84,6.0,14.0,30,0.00,,---,0.00,615.00,VWS V14.00,2013-11-19 18:33:00,
2013-11-19 12:38:00,60.1,28.6,30.19,North,10,8.0,12.0,30,0.00,,---,0.00,613.00,VWS V14.00,2013-11-19 18:38:00,
2013-11-19 12:43:00,60.2,28.7,30.19,NNE,29,6.0,13.0,30,0.00,,---,0.00,608.00,VWS V14.00,2013-11-19 18:43:00,
2013-11-19 12:48:00,60.3,27.9,30.19,NE,38,10.0,13.0,29,0.00,,---,0.00,605.00,VWS V14.00,2013-11-19 18:48:00,
2013-11-19 12:53:00,60.2,27.9,30.18,NNE,21,13.0,13.0,29,0.00,,---,0.00,599.00,VWS V14.00,2013-11-19 18:53:00,
2013-11-19 12:58:00,60.2,27.9,30.18,NNE,31,7.0,11.0,29,0.00,,---,0.00,594.00,VWS V14.00,2013-11-19 18:58:00,
2013-11-19 13:03:00,60.4,27.2,30.18,NNE,33,11.0,12.0,28,0.00,,---,0.00,589.00,VWS V14.00,2013-11-19 19:03:00,
2013-11-19 13:05:00,60.4,27.2,30.18,NE,48,5.0,12.0,28,0.00,,---,0.00,587.00,VWS V14.00,2013-11-19 19:05:00,
2013-11-19 13:10:00,60.5,28.1,30.18,North,5,7.0,8.0,29,0.00,,---,0.00,582.00,VWS V14.00,2013-11-19 19:10:00,
2013-11-19 13:15:00,60.7,28.3,30.17,NNE,24,7.0,9.0,29,0.00,,---,0.00,575.00,VWS V14.00,2013-11-19 19:15:00,
2013-11-19 13:20:00,60.9,27.6,30.17,NE,55,9.0,11.0,28,0.00,,---,0.00,568.00,VWS V14.00,2013-11-19 19:20:00,
2013-11-19 13:25:00,60.8,28.4,30.17,ENE,57,9.0,9.0,29,0.00,,---,0.00,559.00,VWS V14.00,2013-11-19 19:25:00,
2013-11-19 13:30:00,60.9,27.6,30.17,NE,46,12.0,13.0,28,0.00,,---,0.00,554.00,VWS V14.00,2013-11-19 19:30:00,
2013-11-19 13:35:00,61.0,28.5,30.17,NE,53,6.0,10.0,29,0.00,,---,0.00,545.00,VWS V14.00,2013-11-19 19:35:00,
2013-11-19 13:40:00,61.1,27.8,30.16,NE,46,6.0,10.0,28,0.00,,---,0.00,534.00,VWS V14.00,2013-11-19 19:40:00,
2013-11-19 13:45:00,61.1,27.8,30.16,NE,38,13.0,13.0,28,0.00,,---,0.00,527.00,VWS V14.00,2013-11-19 19:45:00,
2013-11-19 13:50:00,61.1,27.8,30.15,NNE,29,7.0,9.0,28,0.00,,---,0.00,520.00,VWS V14.00,2013-11-19 19:50:00,
2013-11-19 13:55:00,61.1,28.6,30.16,NNE,30,8.0,8.0,29,0.00,,---,0.00,510.00,VWS V14.00,2013-11-19 19:55:00,
2013-11-19 14:00:00,61.2,27.9,30.15,East,80,8.0,10.0,28,0.00,,---,0.00,499.00,VWS V14.00,2013-11-19 20:00:00,
2013-11-19 14:05:00,61.3,27.9,30.15,ENE,67,9.0,12.0,28,0.00,,---,0.00,489.00,VWS V14.00,2013-11-19 20:05:00,
2013-11-19 14:10:00,61.5,28.1,30.15,NE,50,5.0,11.0,28,0.00,,---,0.00,478.00,VWS V14.00,2013-11-19 20:10:00,
2013-11-19 14:15:00,61.3,28.8,30.15,NE,34,8.0,9.0,29,0.00,,---,0.00,468.00,VWS V14.00,2013-11-19 20:15:00,
2013-11-19 14:20:00,61.4,30.5,30.14,ENE,58,4.0,9.0,31,0.00,,---,0.00,457.00,VWS V14.00,2013-11-19 20:20:00,
2013-11-19 14:25:00,61.7,32.3,30.14,North,350,8.0,8.0,33,0.00,,---,0.00,445.00,VWS V14.00,2013-11-19 20:25:00,
2013-11-19 14:30:00,61.5,32.2,30.14,NNE,28,7.0,7.0,33,0.00,,---,0.00,432.00,VWS V14.00,2013-11-19 20:30:00,
2013-11-19 14:35:00,61.2,32.6,30.14,NNE,32,5.0,5.0,34,0.00,,---,0.00,418.00,VWS V14.00,2013-11-19 20:35:00,
2013-11-19 14:40:00,61.1,31.0,30.13,NE,43,3.0,4.0,32,0.00,,---,0.00,404.00,VWS V14.00,2013-11-19 20:40:00,
2013-11-19 14:45:00,61.1,31.8,30.13,NE,42,8.0,9.0,33,0.00,,---,0.00,392.00,VWS V14.00,2013-11-19 20:45:00,
2013-11-19 14:50:00,61.1,30.3,30.13,NNE,24,6.0,10.0,31,0.00,,---,0.00,378.00,VWS V14.00,2013-11-19 20:50:00,
2013-11-19 14:55:00,60.9,30.9,30.13,ENE,63,5.0,9.0,32,0.00,,---,0.00,367.00,VWS V14.00,2013-11-19 20:55:00,
2013-11-19 15:00:00,60.8,30.8,30.13,NNE,26,5.0,9.0,32,0.00,,---,0.00,353.00,VWS V14.00,2013-11-19 21:00:00,
2013-11-19 15:05:00,61.0,30.2,30.13,NE,42,6.0,10.0,31,0.00,,---,0.00,339.00,VWS V14.00,2013-11-19 21:05:00,
2013-11-19 15:10:00,61.0,27.7,30.13,NE,49,6.0,9.0,28,0.00,,---,0.00,325.00,VWS V14.00,2013-11-19 21:10:00,
2013-11-19 15:15:00,60.9,29.3,30.13,North,355,5.0,7.0,30,0.00,,---,0.00,311.00,VWS V14.00,2013-11-19 21:15:00,
2013-11-19 15:20:00,60.9,30.1,30.12,NE,45,8.0,8.0,31,0.00,,---,0.00,295.00,VWS V14.00,2013-11-19 21:20:00,
2013-11-19 15:25:00,60.9,30.9,30.12,ENE,63,9.0,9.0,32,0.00,,---,0.00,281.00,VWS V14.00,2013-11-19 21:25:00,
2013-11-19 15:30:00,60.6,30.6,30.12,NE,36,8.0,9.0,32,0.00,,---,0.00,265.00,VWS V14.00,2013-11-19 21:30:00,
2013-11-19 15:35:00,60.4,30.4,30.12,NNE,22,6.0,8.0,32,0.00,,---,0.00,250.00,VWS V14.00,2013-11-19 21:35:00,
2013-11-19 15:40:00,60.3,30.3,30.13,North,9,4.0,10.0,32,0.00,,---,0.00,232.00,VWS V14.00,2013-11-19 21:40:00,
2013-11-19 15:45:00,60.1,31.7,30.13,NNE,31,6.0,6.0,34,0.00,,---,0.00,213.00,VWS V14.00,2013-11-19 21:45:00,
2013-11-19 15:50:00,60.1,32.4,30.13,NE,53,5.0,8.0,35,0.00,,---,0.00,193.00,VWS V14.00,2013-11-19 21:50:00,
2013-11-19 15:55:00,59.9,32.2,30.13,NNE,24,3.0,4.0,35,0.00,,---,0.00,174.00,VWS V14.00,2013-11-19 21:55:00,
2013-11-19 16:00:00,59.8,32.1,30.13,NNE,16,3.0,4.0,35,0.00,,---,0.00,158.00,VWS V14.00,2013-11-19 22:00:00,
2013-11-19 16:05:00,59.7,32.0,30.13,NNE,30,8.0,8.0,35,0.00,,---,0.00,139.00,VWS V14.00,2013-11-19 22:05:00,
2013-11-19 16:10:00,59.5,31.9,30.13,NE,34,7.0,7.0,35,0.00,,---,0.00,120.00,VWS V14.00,2013-11-19 22:10:00,
2013-11-19 16:15:00,59.2,30.9,30.13,NNE,15,3.0,4.0,34,0.00,,---,0.00,102.00,VWS V14.00,2013-11-19 22:15:00,
2013-11-19 16:20:00,59.0,31.4,30.13,NNE,21,5.0,7.0,35,0.00,,---,0.00,84.00,VWS V14.00,2013-11-19 22:20:00,
2013-11-19 16:25:00,58.9,30.6,30.13,NNE,15,6.0,7.0,34,0.00,,---,0.00,70.00,VWS V14.00,2013-11-19 22:25:00,
2013-11-19 16:30:00,58.7,30.4,30.13,North,355,3.0,5.0,34,0.00,,---,0.00,56.00,VWS V14.00,2013-11-19 22:30:00,
2013-11-19 16:35:00,58.4,31.6,30.13,NNE,12,3.0,4.0,36,0.00,,---,0.00,42.00,VWS V14.00,2013-11-19 22:35:00,
2013-11-19 16:40:00,58.1,30.6,30.13,NNE,22,3.0,4.0,35,0.00,,---,0.00,33.00,VWS V14.00,2013-11-19 22:40:00,
2013-11-19 16:45:00,57.7,31.0,30.13,NE,50,2.0,4.0,36,0.00,,---,0.00,21.00,VWS V14.00,2013-11-19 22:45:00,
2013-11-19 16:50:00,57.3,31.3,30.13,NNE,31,2.0,3.0,37,0.00,,---,0.00,16.00,VWS V14.00,2013-11-19 22:50:00,
2013-11-19 16:55:00,57.0,31.7,30.12,NNE,22,3.0,4.0,38,0.00,,---,0.00,11.00,VWS V14.00,2013-11-19 22:55:00,
2013-11-19 17:00:00,56.5,31.2,30.12,NNE,32,3.0,5.0,38,0.00,,---,0.00,7.00,VWS V14.00,2013-11-19 23:00:00,
2013-11-19 17:05:00,56.1,31.5,30.12,NE,42,3.0,4.0,39,0.00,,---,0.00,5.00,VWS V14.00,2013-11-19 23:05:00,
2013-11-19 17:10:00,55.7,31.8,30.13,NE,34,2.0,2.0,40,0.00,,---,0.00,0.00,VWS V14.00,2013-11-19 23:10:00,
2013-11-19 17:15:00,55.3,32.0,30.12,NE,34,2.0,3.0,41,0.00,,---,0.00,0.00,VWS V14.00,2013-11-19 23:15:00,
2013-11-19 17:20:00,54.9,32.3,30.12,NNE,30,2.0,3.0,42,0.00,,---,0.00,0.00,VWS V14.00,2013-11-19 23:20:00,
2013-11-19 17:25:00,54.5,32.5,30.13,NNE,26,1.0,2.0,43,0.00,,---,0.00,0.00,VWS V14.00,2013-11-19 23:25:00,
2013-11-19 17:30:00,54.2,32.2,30.13,NNE,26,1.0,3.0,43,0.00,,---,0.00,0.00,VWS V14.00,2013-11-19 23:30:00,
2013-11-19 17:35:00,53.9,33.1,30.13,NNE,26,3.0,3.0,45,0.00,,---,0.00,0.00,VWS V14.00,2013-11-19 23:35:00,
2013-11-19 17:40:00,53.4,33.2,30.13,NNE,26,2.0,3.0,46,0.00,,---,0.00,0.00,VWS V14.00,2013-11-19 23:40:00,
2013-11-19 17:45:00,53.1,33.4,30.13,NNE,19,3.0,4.0,47,0.00,,---,0.00,0.00,VWS V14.00,2013-11-19 23:45:00,
2013-11-19 17:50:00,53.0,32.8,30.13,NNE,24,4.0,5.0,46,0.00,,---,0.00,0.00,VWS V14.00,2013-11-19 23:50:00,
2013-11-19 17:55:00,53.0,33.3,30.13,NNE,20,4.0,4.0,47,0.00,,---,0.00,0.00,VWS V14.00,2013-11-19 23:55:00,
2013-11-19 18:00:00,52.9,32.7,30.13,NNE,23,3.0,5.0,46,0.00,,---,0.00,0.00,VWS V14.00,2013-11-20 00:00:00,
2013-11-19 18:05:00,52.7,33.0,30.13,NNE,20,3.0,3.0,47,0.00,,---,0.00,0.00,VWS V14.00,2013-11-20 00:05:00,
2013-11-19 18:10:00,52.5,32.3,30.13,NNE,16,6.0,6.0,46,0.00,,---,0.00,0.00,VWS V14.00,2013-11-20 00:10:00,
2013-11-19 18:15:00,52.3,32.2,30.14,NNE,23,3.0,5.0,46,0.00,,---,0.00,0.00,VWS V14.00,2013-11-20 00:15:00,
2013-11-19 18:20:00,52.1,32.5,30.14,NNE,18,3.0,4.0,47,0.00,,---,0.00,0.00,VWS V14.00,2013-11-20 00:20:00,
2013-11-19 18:25:00,51.8,31.7,30.14,NNE,20,3.0,5.0,46,0.00,,---,0.00,0.00,VWS V14.00,2013-11-20 00:25:00,
2013-11-19 18:30:00,51.7,31.6,30.13,NE,43,3.0,5.0,46,0.00,,---,0.00,0.00,VWS V14.00,2013-11-20 00:30:00,
2013-11-19 18:35:00,51.5,32.0,30.14,NE,34,1.0,3.0,47,0.00,,---,0.00,0.00,VWS V14.00,2013-11-20 00:35:00,
2013-11-19 18:40:00,51.4,31.9,30.13,NE,40,2.0,3.0,47,0.00,,---,0.00,0.00,VWS V14.00,2013-11-20 00:40:00,
2013-11-19 18:45:00,51.1,32.1,30.14,NE,42,3.0,4.0,48,0.00,,---,0.00,0.00,VWS V14.00,2013-11-20 00:45:00,
2013-11-19 18:50:00,50.9,32.4,30.14,NE,34,2.0,3.0,49,0.00,,---,0.00,0.00,VWS V14.00,2013-11-20 00:50:00,
2013-11-19 18:55:00,50.7,32.2,30.14,NE,47,2.0,5.0,49,0.00,,---,0.00,0.00,VWS V14.00,2013-11-20 00:55:00,
2013-11-19 19:00:00,50.7,32.2,30.14,NE,44,2.0,2.0,49,0.00,,---,0.00,0.00,VWS V14.00,2013-11-20 01:00:00,
2013-11-19 19:05:00,50.6,32.7,30.14,NNE,27,2.0,3.0,50,0.00,,---,0.00,0.00,VWS V14.00,2013-11-20 01:05:00,
2013-11-19 19:10:00,50.4,32.5,30.14,NE,47,2.0,3.0,50,0.00,,---,0.00,0.00,VWS V14.00,2013-11-20 01:10:00,
2013-11-19 19:15:00,50.3,32.9,30.14,NE,46,2.0,2.0,51,0.00,,---,0.00,0.00,VWS V14.00,2013-11-20 01:15:00,
2013-11-19 19:20:00,50.1,32.7,30.14,ENE,59,1.0,2.0,51,0.00,,---,0.00,0.00,VWS V14.00,2013-11-20 01:20:00,
2013-11-19 19:25:00,50.0,33.1,30.14,ENE,59,1.0,2.0,52,0.00,,---,0.00,0.00,VWS V14.00,2013-11-20 01:25:00,
2013-11-19 19:30:00,49.8,32.9,30.14,ENE,59,1.0,1.0,52,0.00,,---,0.00,0.00,VWS V14.00,2013-11-20 01:30:00,
2013-11-19 19:35:00,49.7,32.8,30.14,ENE,59,1.0,2.0,52,0.00,,---,0.00,0.00,VWS V14.00,2013-11-20 01:35:00,
2013-11-19 19:40:00,49.5,33.1,30.14,ENE,59,1.0,1.0,53,0.00,,---,0.00,0.00,VWS V14.00,2013-11-20 01:40:00,
2013-11-19 19:45:00,49.4,33.5,30.14,ENE,59,2.0,2.0,54,0.00,,---,0.00,0.00,VWS V14.00,2013-11-20 01:45:00,
2013-11-19 19:50:00,49.1,33.7,30.14,ENE,59,1.0,1.0,55,0.00,,---,0.00,0.00,VWS V14.00,2013-11-20 01:50:00,
2013-11-19 19:55:00,48.8,34.3,30.14,ENE,59,2.0,2.0,57,0.00,,---,0.00,0.00,VWS V14.00,2013-11-20 01:55:00,
2013-11-19 20:00:00,48.3,34.2,30.13,ENE,59,1.0,2.0,58,0.00,,---,0.00,0.00,VWS V14.00,2013-11-20 02:00:00,
2013-11-19 20:05:00,48.0,34.4,30.13,ENE,59,1.0,1.0,59,0.00,,---,0.00,0.00,VWS V14.00,2013-11-20 02:05:00,
2013-11-19 20:10:00,47.8,34.2,30.13,ENE,59,1.0,1.0,59,0.00,,---,0.00,0.00,VWS V14.00,2013-11-20 02:10:00,
2013-11-19 20:15:00,47.5,34.7,30.13,NE,40,1.0,3.0,61,0.00,,---,0.00,0.00,VWS V14.00,2013-11-20 02:15:00,
2013-11-19 20:20:00,47.4,34.2,30.13,NE,45,2.0,2.0,60,0.00,,---,0.00,0.00,VWS V14.00,2013-11-20 02:20:00,
2013-11-19 20:25:00,47.4,34.6,30.13,NE,42,2.0,3.0,61,0.00,,---,0.00,0.00,VWS V14.00,2013-11-20 02:25:00,
2013-11-19 20:30:00,47.3,34.5,30.13,NE,50,2.0,3.0,61,0.00,,---,0.00,0.00,VWS V14.00,2013-11-20 02:30:00,
2013-11-19 20:35:00,47.1,34.8,30.13,NE,50,2.0,3.0,62,0.00,,---,0.00,0.00,VWS V14.00,2013-11-20 02:35:00,
2013-11-19 20:40:00,46.8,34.9,30.14,NE,50,1.0,2.0,63,0.00,,---,0.00,0.00,VWS V14.00,2013-11-20 02:40:00,
2013-11-19 20:45:00,46.6,35.1,30.13,NE,50,2.0,2.0,64,0.00,,---,0.00,0.00,VWS V14.00,2013-11-20 02:45:00,
2013-11-19 20:50:00,46.3,34.8,30.14,NE,50,1.0,2.0,64,0.00,,---,0.00,0.00,VWS V14.00,2013-11-20 02:50:00,
2013-11-19 20:55:00,46.1,35.0,30.14,ENE,57,2.0,3.0,65,0.00,,---,0.00,0.00,VWS V14.00,2013-11-20 02:55:00,
2013-11-19 21:00:00,45.8,34.7,30.14,ENE,57,2.0,3.0,65,0.00,,---,0.00,0.00,VWS V14.00,2013-11-20 03:00:00,
2013-11-19 21:05:00,45.6,34.9,30.13,ENE,57,2.0,2.0,66,0.00,,---,0.00,0.00,VWS V14.00,2013-11-20 03:05:00,
2013-11-19 21:10:00,45.6,34.9,30.14,ENE,57,1.0,2.0,66,0.00,,---,0.00,0.00,VWS V14.00,2013-11-20 03:10:00,
2013-11-19 21:15:00,45.5,34.8,30.14,ENE,57,2.0,2.0,66,0.00,,---,0.00,0.00,VWS V14.00,2013-11-20 03:15:00,
2013-11-19 21:20:00,45.4,35.1,30.13,ENE,57,1.0,2.0,67,0.00,,---,0.00,0.00,VWS V14.00,2013-11-20 03:20:00,
2013-11-19 21:25:00,45.2,34.9,30.13,ENE,57,2.0,3.0,67,0.00,,---,0.00,0.00,VWS V14.00,2013-11-20 03:25:00,
2013-11-19 21:30:00,45.0,35.1,30.13,ENE,57,1.0,2.0,68,0.00,,---,0.00,0.00,VWS V14.00,2013-11-20 03:30:00,
2013-11-19 21:34:00,44.9,35.0,30.14,ENE,57,0.0,1.0,68,0.00,,---,0.00,0.00,VWS V14.00,2013-11-20 03:34:00,
2013-11-19 21:39:00,44.9,35.0,30.14,ENE,57,0.0,1.0,68,0.00,,---,0.00,0.00,VWS V14.00,2013-11-20 03:39:00,
2013-11-19 21:44:00,44.7,34.8,30.13,ENE,57,1.0,1.0,68,0.00,,---,0.00,0.00,VWS V14.00,2013-11-20 03:44:00,
2013-11-19 21:49:00,44.6,34.7,30.13,ENE,57,2.0,2.0,68,0.00,,---,0.00,0.00,VWS V14.00,2013-11-20 03:49:00,
2013-11-19 21:54:00,44.6,35.1,30.13,ENE,57,2.0,2.0,69,0.00,,---,0.00,0.00,VWS V14.00,2013-11-20 03:54:00,
2013-11-19 21:59:00,44.5,35.0,30.13,ENE,57,2.0,2.0,69,0.00,,---,0.00,0.00,VWS V14.00,2013-11-20 03:59:00,
2013-11-19 22:04:00,44.5,35.3,30.13,ENE,57,2.0,2.0,70,0.00,,---,0.00,0.00,VWS V14.00,2013-11-20 04:04:00,
2013-11-19 22:09:00,44.4,35.2,30.13,NE,46,1.0,2.0,70,0.00,,---,0.00,0.00,VWS V14.00,2013-11-20 04:09:00,
2013-11-19 22:14:00,44.3,35.2,30.13,NE,46,3.0,3.0,70,0.00,,---,0.00,0.00,VWS V14.00,2013-11-20 04:14:00,
2013-11-19 22:19:00,44.2,35.0,30.13,NE,56,2.0,3.0,70,0.00,,---,0.00,0.00,VWS V14.00,2013-11-20 04:19:00,
2013-11-19 22:24:00,44.2,35.0,30.12,ENE,58,1.0,2.0,70,0.00,,---,0.00,0.00,VWS V14.00,2013-11-20 04:24:00,
2013-11-19 22:29:00,44.2,35.4,30.13,ENE,58,1.0,2.0,71,0.00,,---,0.00,0.00,VWS V14.00,2013-11-20 04:29:00,
2013-11-19 22:34:00,44.1,35.0,30.13,NE,51,2.0,3.0,70,0.00,,---,0.00,0.00,VWS V14.00,2013-11-20 04:34:00,
2013-11-19 22:39:00,44.2,35.0,30.12,NE,53,3.0,3.0,70,0.00,,---,0.00,0.00,VWS V14.00,2013-11-20 04:39:00,
2013-11-19 22:44:00,44.2,35.0,30.12,NE,53,2.0,2.0,70,0.00,,---,0.00,0.00,VWS V14.00,2013-11-20 04:44:00,
2013-11-19 22:49:00,44.2,35.0,30.12,NE,53,1.0,2.0,70,0.00,,---,0.00,0.00,VWS V14.00,2013-11-20 04:49:00,
2013-11-19 22:54:00,44.1,35.0,30.12,ENE,57,1.0,2.0,70,0.00,,---,0.00,0.00,VWS V14.00,2013-11-20 04:54:00,
2013-11-19 22:59:00,44.0,34.9,30.12,ENE,57,2.0,2.0,70,0.00,,---,0.00,0.00,VWS V14.00,2013-11-20 04:59:00,
2013-11-19 23:01:00,44.0,34.9,30.12,ENE,57,1.0,2.0,70,0.00,,---,0.00,0.00,VWS V14.00,2013-11-20 05:01:00,
2013-11-19 23:06:00,43.9,34.8,30.12,ENE,57,1.0,2.0,70,0.00,,---,0.00,0.00,VWS V14.00,2013-11-20 05:06:00,
2013-11-19 23:11:00,43.8,34.7,30.12,ENE,57,1.0,2.0,70,0.00,,---,0.00,0.00,VWS V14.00,2013-11-20 05:11:00,
2013-11-19 23:16:00,43.8,34.7,30.12,ENE,57,1.0,2.0,70,0.00,,---,0.00,0.00,VWS V14.00,2013-11-20 05:16:00,
2013-11-19 23:21:00,43.7,34.6,30.12,ENE,57,1.0,2.0,70,0.00,,---,0.00,0.00,VWS V14.00,2013-11-20 05:21:00,
2013-11-19 23:26:00,43.6,34.8,30.12,ENE,57,0.0,2.0,71,0.00,,---,0.00,0.00,VWS V14.00,2013-11-20 05:26:00,
2013-11-19 23:31:00,43.5,34.7,30.12,ENE,57,1.0,2.0,71,0.00,,---,0.00,0.00,VWS V14.00,2013-11-20 05:31:00,
2013-11-19 23:36:00,43.3,34.5,30.12,ENE,57,1.0,2.0,71,0.00,,---,0.00,0.00,VWS V14.00,2013-11-20 05:36:00,
2013-11-19 23:41:00,43.3,34.5,30.12,ENE,57,2.0,2.0,71,0.00,,---,0.00,0.00,VWS V14.00,2013-11-20 05:41:00,
2013-11-19 23:46:00,43.2,34.5,30.12,ENE,57,2.0,2.0,71,0.00,,---,0.00,0.00,VWS V14.00,2013-11-20 05:46:00,
2013-11-19 23:51:00,43.3,34.9,30.12,ENE,57,1.0,2.0,72,0.00,,---,0.00,0.00,VWS V14.00,2013-11-20 05:51:00,
2013-11-19 23:56:00,43.3,34.9,30.12,ENE,58,1.0,2.0,72,0.00,,---,0.00,0.00,VWS V14.00,2013-11-20 05:56:00,